Time;durP1;ratioP1;P1;durP2;ratioP2;P2;SDS_P1;SDS_P2;PMS_P1;PMS_P2;Temp;Humidity;BMP_temperature;BMP_pressure;BME280_temperature;BME280_humidity;BME280_pressure;Samples;Min_cycle;Max_cycle;Signal;HPM_P1;HPM_P2
2022/03/10 00:00:19;;;;;;;5.53;4.03;;;;;;;20.60;45.22;100929.78;20636400;27;98168;-77
2022/03/10 00:10:20;;;;;;;6.05;3.95;;;;;;;20.59;45.15;100942.13;20643866;27;97613;-77
2022/03/10 00:20:21;;;;;;;5.13;4.03;;;;;;;20.56;45.31;100946.75;20655257;27;99717;-77
2022/03/10 00:30:22;;;;;;;5.75;4.35;;;;;;;20.53;45.09;100968.84;20605837;27;98089;-76
2022/03/10 00:40:23;;;;;;;5.72;4.40;;;;;;;20.49;45.47;100975.22;20646795;28;98455;-76
2022/03/10 00:50:23;;;;;;;5.97;4.00;;;;;;;20.46;44.89;100983.31;20637351;28;100991;-75
2022/03/10 01:00:28;;;;;;;5.83;4.10;;;;;;;20.43;45.32;100994.03;20649754;28;98349;-76
2022/03/10 01:10:28;;;;;;;4.22;3.75;;;;;;;20.41;45.00;101007.28;20646687;27;97639;-76
2022/03/10 01:20:29;;;;;;;4.93;3.75;;;;;;;20.39;45.17;101011.78;20652881;27;97877;-76
2022/03/10 01:30:30;;;;;;;12.40;3.80;;;;;;;20.37;45.21;101007.59;20655973;28;101481;-76
2022/03/10 01:40:30;;;;;;;5.57;3.63;;;;;;;20.35;44.98;101020.84;20644979;27;97953;-76
2022/03/10 01:50:31;;;;;;;4.97;3.70;;;;;;;20.33;45.29;101035.03;20645477;28;97691;-76
2022/03/10 02:00:32;;;;;;;4.38;3.60;;;;;;;20.31;45.10;101043.00;20650258;28;97086;-76
2022/03/10 02:10:35;;;;;;;4.43;3.83;;;;;;;20.28;45.29;101046.66;20651536;28;97186;-76
2022/03/10 02:20:37;;;;;;;5.03;3.67;;;;;;;20.27;45.34;101065.19;20648811;28;97022;-76
2022/03/10 02:30:37;;;;;;;5.63;3.88;;;;;;;20.25;45.18;101067.06;20644006;28;98319;-75
2022/03/10 02:40:38;;;;;;;4.78;3.35;;;;;;;20.23;45.35;101085.56;20643189;27;98474;-74
2022/03/10 02:50:40;;;;;;;4.05;3.50;;;;;;;20.21;45.14;101091.88;20643633;27;98178;-75
2022/03/10 03:00:41;;;;;;;4.25;3.47;;;;;;;20.19;45.15;101106.88;20643032;28;100575;-76
2022/03/10 03:10:41;;;;;;;4.13;3.72;;;;;;;20.16;45.02;101107.91;20644023;28;102085;-75
2022/03/10 03:20:42;;;;;;;4.30;3.50;;;;;;;20.17;45.15;101125.38;20644100;28;100019;-76
2022/03/10 03:30:43;;;;;;;5.53;3.70;;;;;;;20.13;45.45;101137.88;20645726;27;97750;-76
2022/03/10 03:40:43;;;;;;;4.10;3.70;;;;;;;20.12;45.39;101148.50;20655056;28;99180;-75
2022/03/10 03:50:44;;;;;;;4.30;3.67;;;;;;;20.09;45.11;101167.94;20652678;28;97664;-75
2022/03/10 04:00:44;;;;;;;4.70;3.80;;;;;;;20.09;45.38;101185.47;20651554;28;97143;-75
2022/03/10 04:10:45;;;;;;;4.53;3.55;;;;;;;20.06;45.06;101204.91;20648273;27;97568;-75
2022/03/10 04:20:46;;;;;;;5.73;4.27;;;;;;;20.04;45.19;101222.56;20654191;27;98436;-74
2022/03/10 04:30:47;;;;;;;4.53;3.80;;;;;;;20.03;45.60;101249.81;20645530;28;97598;-75
2022/03/10 04:40:47;;;;;;;4.03;3.53;;;;;;;20.00;45.22;101269.22;20646021;28;97994;-75
2022/03/10 04:50:48;;;;;;;4.95;4.15;;;;;;;19.99;45.13;101283.31;20645138;28;97519;-75
2022/03/10 05:00:48;;;;;;;4.78;3.75;;;;;;;19.94;45.35;101285.34;20645532;28;97814;-74
2022/03/10 05:10:48;;;;;;;4.03;3.45;;;;;;;19.97;45.30;101294.84;20669663;28;98184;-75
2022/03/10 05:20:49;;;;;;;3.55;3.15;;;;;;;20.15;45.81;101308.69;20662820;28;97455;-74
2022/03/10 05:30:50;;;;;;;4.18;3.13;;;;;;;20.31;46.58;101327.91;20664269;28;96784;-75
2022/03/10 05:40:50;;;;;;;8.00;2.77;;;;;;;20.47;46.96;101337.53;20659165;28;98702;-75
2022/03/10 05:50:51;;;;;;;10.20;3.10;;;;;;;20.56;47.15;101349.28;20674511;27;97495;-78
2022/03/10 06:00:51;;;;;;;6.82;3.00;;;;;;;20.60;46.55;101362.19;20683638;28;100233;-77
2022/03/10 06:10:52;;;;;;;11.07;3.30;;;;;;;20.61;45.95;101379.63;20675741;28;98366;-77
2022/03/10 06:20:52;;;;;;;15.75;3.10;;;;;;;20.64;44.42;101387.38;20660087;28;96865;-75
2022/03/10 06:30:53;;;;;;;10.02;3.15;;;;;;;20.59;42.81;101393.81;20676030;28;97021;-77
2022/03/10 06:40:53;;;;;;;20.63;3.80;;;;;;;20.71;43.76;101411.53;20677854;28;96940;-76
2022/03/10 06:50:54;;;;;;;17.73;4.22;;;;;;;20.77;44.15;101431.41;20672862;28;97928;-77
2022/03/10 07:00:54;;;;;;;13.95;3.97;;;;;;;20.71;41.89;101424.69;20660984;27;98049;-78
2022/03/10 07:10:55;;;;;;;9.32;4.03;;;;;;;20.83;42.27;101446.00;20667594;28;97240;-78
2022/03/10 07:20:55;;;;;;;10.50;3.97;;;;;;;20.89;43.28;101458.81;20656158;28;97811;-77
2022/03/10 07:30:56;;;;;;;12.02;4.68;;;;;;;20.92;43.18;101467.38;20667430;28;97202;-78
2022/03/10 07:40:58;;;;;;;10.52;4.53;;;;;;;20.97;43.46;101459.22;20650342;28;98763;-78
2022/03/10 07:50:58;;;;;;;12.18;6.47;;;;;;;21.03;43.48;101455.34;20663659;28;97093;-78
2022/03/10 08:00:59;;;;;;;12.77;6.22;;;;;;;21.07;43.12;101456.88;20663109;28;97104;-78
2022/03/10 08:11:00;;;;;;;9.73;5.80;;;;;;;21.10;43.38;101472.47;20662146;28;97012;-78
2022/03/10 08:21:02;;;;;;;11.27;5.90;;;;;;;21.10;43.16;101468.06;20666036;27;98301;-77
2022/03/10 08:31:04;;;;;;;10.32;6.13;;;;;;;21.12;43.57;101465.34;20663202;27;96940;-78
2022/03/10 08:41:04;;;;;;;10.82;6.72;;;;;;;21.13;43.14;101468.81;20677512;28;97074;-77
2022/03/10 08:51:06;;;;;;;11.32;6.80;;;;;;;21.16;42.95;101460.72;20672288;28;99097;-78
2022/03/10 09:01:06;;;;;;;12.38;9.38;;;;;;;21.18;42.84;101474.63;20681854;28;97544;-76
2022/03/10 09:11:07;;;;;;;11.18;6.75;;;;;;;21.19;42.73;101484.22;20672429;27;97269;-79
2022/03/10 09:21:07;;;;;;;13.00;7.05;;;;;;;21.19;42.97;101476.31;20669394;28;99037;-78
2022/03/10 09:31:10;;;;;;;9.65;6.78;;;;;;;21.19;42.93;101482.47;20666633;27;101011;-78
2022/03/10 09:41:11;;;;;;;10.50;6.60;;;;;;;21.20;43.01;101489.44;20680146;27;97310;-76
2022/03/10 09:51:11;;;;;;;10.40;6.13;;;;;;;21.22;43.30;101492.78;20670921;28;97313;-76
2022/03/10 10:01:12;;;;;;;8.02;5.65;;;;;;;21.25;43.06;101497.03;20679021;28;97264;-76
2022/03/10 10:11:14;;;;;;;9.77;6.45;;;;;;;21.26;42.91;101499.59;20656678;27;97518;-76
2022/03/10 10:21:19;;;;;;;8.47;5.63;;;;;;;21.30;42.97;101499.41;20650237;28;100144;-76
2022/03/10 10:31:24;;;;;;;5.93;4.50;;;;;;;21.33;42.82;101505.31;20662961;28;102095;-75
2022/03/10 10:41:26;;;;;;;5.45;4.32;;;;;;;21.38;42.76;101508.53;20663590;28;97316;-76
2022/03/10 10:51:30;;;;;;;5.20;4.20;;;;;;;21.44;42.37;101505.50;20665722;27;101010;-76
2022/03/10 11:01:37;;;;;;;5.25;3.90;;;;;;;21.51;42.34;101513.06;20620957;28;98467;-75
2022/03/10 11:11:38;;;;;;;4.43;3.50;;;;;;;21.59;42.25;101506.41;20654691;28;99618;-74
2022/03/10 11:21:50;;;;;;;4.25;3.58;;;;;;;21.67;42.07;101505.94;20653647;28;97262;-74
2022/03/10 11:31:53;;;;;;;4.93;3.77;;;;;;;21.75;42.11;101479.94;20653721;28;97493;-76
2022/03/10 11:41:55;;;;;;;6.25;3.50;;;;;;;21.83;41.94;101476.00;20659683;27;97513;-76
2022/03/10 11:51:57;;;;;;;4.53;3.30;;;;;;;21.90;41.73;101474.66;20649815;27;97588;-76
2022/03/10 12:01:58;;;;;;;4.03;2.92;;;;;;;21.98;41.88;101464.44;20647834;28;97562;-76
2022/03/10 12:12:14;;;;;;;3.65;2.80;;;;;;;22.03;41.50;101470.31;20658943;28;97141;-76
2022/03/10 12:22:27;;;;;;;4.30;3.08;;;;;;;22.12;41.53;101463.59;20654690;28;98187;-76
2022/03/10 12:32:29;;;;;;;3.60;2.80;;;;;;;22.15;41.52;101465.19;20664619;28;97315;-80
2022/03/10 12:42:31;;;;;;;3.17;2.60;;;;;;;22.25;40.90;101454.88;20632806;28;98455;-77
2022/03/10 12:52:40;;;;;;;4.20;2.60;;;;;;;22.32;40.68;101457.00;20653488;27;97883;-76
2022/03/10 13:02:40;;;;;;;3.55;2.30;;;;;;;22.41;40.71;101467.94;20606703;27;97979;-77
2022/03/10 13:12:48;;;;;;;5.43;2.40;;;;;;;22.47;40.84;101462.25;20653122;28;97425;-77
2022/03/10 13:22:52;;;;;;;2.53;2.25;;;;;;;22.53;40.72;101461.84;20666004;28;98401;-77
2022/03/10 13:32:55;;;;;;;6.13;2.28;;;;;;;22.48;38.62;101467.41;20664068;28;97366;-77
2022/03/10 13:42:56;;;;;;;4.68;2.42;;;;;;;22.57;39.25;101465.13;20666249;28;97286;-77
2022/03/10 13:53:06;;;;;;;2.33;2.13;;;;;;;22.62;39.14;101463.03;20667963;28;97796;-77
2022/03/10 14:03:19;;;;;;;2.85;2.30;;;;;;;22.64;39.30;101469.91;20665650;28;97814;-76
2022/03/10 14:13:19;;;;;;;6.32;2.25;;;;;;;22.63;39.13;101460.31;20662120;27;98241;-76
2022/03/10 14:23:24;;;;;;;4.57;2.17;;;;;;;22.69;39.21;101459.88;20632601;28;97299;-76
2022/03/10 14:33:24;;;;;;;5.93;2.20;;;;;;;22.67;39.46;101464.41;20662887;27;98818;-76
2022/03/10 14:43:25;;;;;;;8.25;2.30;;;;;;;22.69;39.47;101466.94;20662136;28;97133;-75
2022/03/10 14:53:25;;;;;;;3.50;2.03;;;;;;;22.68;39.41;101468.75;20665013;28;97009;-75
2022/03/10 15:03:26;;;;;;;3.78;1.85;;;;;;;22.69;39.66;101482.78;20670884;28;97137;-76
2022/03/10 15:13:27;;;;;;;3.88;1.63;;;;;;;22.65;39.70;101491.88;20668265;27;98366;-76
2022/03/10 15:23:29;;;;;;;2.57;1.80;;;;;;;22.55;39.32;101502.19;20665433;28;97125;-75
2022/03/10 15:33:30;;;;;;;2.87;1.63;;;;;;;22.43;39.50;101511.75;20667624;28;97540;-76
2022/03/10 15:43:34;;;;;;;2.80;1.70;;;;;;;22.36;39.64;101535.03;20678863;28;97956;-75
2022/03/10 15:53:34;;;;;;;2.13;1.38;;;;;;;22.24;39.44;101556.94;20672204;27;97686;-76
2022/03/10 16:03:35;;;;;;;2.38;1.77;;;;;;;22.14;39.30;101566.34;20665156;28;101089;-76
2022/03/10 16:13:36;;;;;;;3.72;1.73;;;;;;;22.04;39.28;101579.28;20660995;27;98305;-76
2022/03/10 16:23:36;;;;;;;6.50;1.83;;;;;;;21.98;38.36;101601.59;20659601;27;100468;-77
2022/03/10 16:33:37;;;;;;;5.75;1.65;;;;;;;21.96;39.67;101598.22;20650304;28;98557;-76
2022/03/10 16:43:37;;;;;;;4.50;1.80;;;;;;;21.83;40.27;101607.81;20661331;28;96991;-76
2022/03/10 16:53:38;;;;;;;2.00;1.50;;;;;;;21.82;40.08;101617.50;20655815;28;97388;-76
2022/03/10 17:03:39;;;;;;;4.60;1.52;;;;;;;21.79;40.29;101619.47;20667879;27;97089;-77
2022/03/10 17:13:39;;;;;;;2.55;1.52;;;;;;;21.72;40.68;101645.38;20650711;27;100983;-77
2022/03/10 17:23:41;;;;;;;7.93;2.10;;;;;;;21.64;39.31;101666.94;20652430;27;100473;-77
2022/03/10 17:33:41;;;;;;;5.47;1.90;;;;;;;21.63;40.02;101680.19;20662368;28;99898;-77
2022/03/10 17:43:41;;;;;;;3.28;1.92;;;;;;;21.58;40.83;101702.41;20660197;27;100755;-77
2022/03/10 17:53:42;;;;;;;4.90;2.22;;;;;;;21.49;41.33;101717.88;20659196;28;97057;-77
2022/03/10 18:03:42;;;;;;;5.50;2.10;;;;;;;21.51;41.49;101726.53;20675692;28;98002;-76
2022/03/10 18:13:43;;;;;;;2.55;1.80;;;;;;;21.53;42.71;101748.38;20671403;27;98228;-77
2022/03/10 18:23:44;;;;;;;6.43;2.00;;;;;;;21.51;42.70;101763.44;20646514;27;98102;-77
2022/03/10 18:33:44;;;;;;;5.47;2.20;;;;;;;21.52;43.25;101784.44;20659115;28;97786;-79
2022/03/10 18:43:45;;;;;;;7.22;2.17;;;;;;;21.52;43.04;101792.34;20647406;28;99709;-77
2022/03/10 18:53:47;;;;;;;4.78;2.20;;;;;;;21.47;43.56;101804.06;20659734;27;100178;-79
2022/03/10 19:03:49;;;;;;;3.30;2.28;;;;;;;21.45;43.09;101814.69;20625476;27;97246;-76
2022/03/10 19:13:49;;;;;;;4.75;2.25;;;;;;;21.42;43.31;101823.63;20618808;28;96999;-77
2022/03/10 19:23:50;;;;;;;3.83;2.35;;;;;;;21.35;43.38;101838.06;20652586;28;97283;-79
2022/03/10 19:33:51;;;;;;;4.72;1.92;;;;;;;21.34;43.47;101854.81;20654781;28;100832;-76
2022/03/10 19:43:53;;;;;;;7.13;2.30;;;;;;;21.28;44.02;101863.88;20642543;27;99916;-78
2022/03/10 19:53:53;;;;;;;4.73;2.43;;;;;;;21.13;40.66;101870.00;20650935;27;97633;-76
2022/03/10 20:03:54;;;;;;;3.30;1.92;;;;;;;21.07;41.96;101880.88;20661735;28;98557;-76
2022/03/10 20:13:54;;;;;;;4.90;2.17;;;;;;;21.02;41.87;101880.25;20656109;28;97788;-77
2022/03/10 20:23:55;;;;;;;4.57;2.40;;;;;;;20.99;41.68;101880.41;20651085;28;98485;-76
2022/03/10 20:33:55;;;;;;;4.63;2.50;;;;;;;21.00;41.77;101890.03;20661759;28;97308;-77
2022/03/10 20:43:56;;;;;;;6.95;2.67;;;;;;;20.98;42.46;101886.63;20661776;28;100626;-77
2022/03/10 20:53:56;;;;;;;4.78;2.47;;;;;;;20.97;41.86;101895.44;20670281;28;97731;-77
2022/03/10 21:03:57;;;;;;;5.07;2.80;;;;;;;20.89;42.15;101893.22;20665413;28;97063;-77
2022/03/10 21:13:59;;;;;;;4.82;2.45;;;;;;;20.86;42.87;101906.53;20663094;28;96819;-75
2022/03/10 21:23:59;;;;;;;3.80;2.40;;;;;;;20.81;42.58;101912.03;20665150;28;96990;-76
2022/03/10 21:34:00;;;;;;;3.33;2.25;;;;;;;20.81;42.13;101933.09;20663236;27;97269;-77
2022/03/10 21:44:01;;;;;;;3.83;2.38;;;;;;;20.78;42.09;101917.47;20668894;27;97622;-76
2022/03/10 21:54:03;;;;;;;3.92;2.20;;;;;;;20.75;42.51;101931.66;20672958;28;97921;-76
2022/03/10 22:04:03;;;;;;;4.57;2.30;;;;;;;20.75;42.42;101941.31;20661218;27;97783;-75
2022/03/10 22:14:04;;;;;;;3.75;2.30;;;;;;;20.70;42.68;101951.19;20667007;28;101733;-77
2022/03/10 22:24:05;;;;;;;3.25;2.30;;;;;;;20.68;42.39;101939.88;20668840;28;97159;-77
2022/03/10 22:34:06;;;;;;;4.13;2.17;;;;;;;20.64;42.40;101947.94;20660966;28;100143;-77
2022/03/10 22:44:06;;;;;;;3.83;2.08;;;;;;;20.66;42.58;101968.06;20659188;27;97377;-78
2022/03/10 22:54:13;;;;;;;2.53;1.83;;;;;;;20.57;42.54;101969.41;20654399;28;98228;-77
2022/03/10 23:14:35;;;;;;;2.85;2.15;;;;;;;20.53;41.96;101962.56;20648894;28;99662;-77
2022/03/10 23:24:36;;;;;;;2.93;2.20;;;;;;;20.49;42.18;101964.50;20657017;28;97170;-77
2022/03/10 23:34:36;;;;;;;4.70;2.10;;;;;;;20.46;42.38;101964.66;20659948;28;98294;-77
2022/03/10 23:44:37;;;;;;;2.53;1.83;;;;;;;20.37;41.92;101967.72;20657568;27;96895;-77
2022/03/10 23:54:38;;;;;;;2.65;1.90;;;;;;;20.41;42.19;101983.28;20667803;27;97087;-77
